createdAt,value
2023-06-11T00:01:28.209Z,5.17
2023-06-11T00:03:55.710Z,5.60
2023-06-11T00:06:24.426Z,5.67
2023-06-11T00:08:55.522Z,5.50
2023-06-11T00:11:23.175Z,6.03
2023-06-11T00:13:50.921Z,5.33
2023-06-11T00:16:18.399Z,4.93
2023-06-11T00:18:46.418Z,4.60
2023-06-11T00:21:15.348Z,5.10
2023-06-11T00:23:42.372Z,5.30
2023-06-11T00:26:09.733Z,5.20
2023-06-11T00:28:36.854Z,5.00
2023-06-11T00:31:07.346Z,4.50
2023-06-11T00:33:34.527Z,5.10
2023-06-11T00:36:01.425Z,5.00
2023-06-11T00:38:29.707Z,4.43
2023-06-11T00:40:56.792Z,4.47
2023-06-11T00:43:25.113Z,4.57
2023-06-11T00:45:52.742Z,4.03
2023-06-11T00:48:21.018Z,4.40
2023-06-11T00:50:52.674Z,5.30
2023-06-11T00:53:20.980Z,4.57
2023-06-11T00:55:48.513Z,4.27
2023-06-11T00:58:18.773Z,4.20
2023-06-11T01:00:50.544Z,3.53
2023-06-11T01:03:22.861Z,4.27
2023-06-11T01:05:54.048Z,4.20
2023-06-11T01:08:22.127Z,3.70
2023-06-11T01:10:50.628Z,3.33
2023-06-11T01:13:17.469Z,4.40
2023-06-11T01:15:44.278Z,3.80
2023-06-11T01:18:20.896Z,4.10
2023-06-11T01:21:13.420Z,3.93
2023-06-11T01:24:08.844Z,4.00
2023-06-11T01:26:54.868Z,3.90
2023-06-11T01:29:23.770Z,3.63
2023-06-11T01:31:51.745Z,4.47
2023-06-11T01:34:18.648Z,3.13
2023-06-11T01:36:45.550Z,4.10
2023-06-11T01:39:13.673Z,3.20
2023-06-11T01:41:40.693Z,3.50
2023-06-11T01:44:07.513Z,3.53
2023-06-11T01:46:34.378Z,3.20
2023-06-11T01:49:01.475Z,3.23
2023-06-11T01:51:28.317Z,2.83
2023-06-11T01:53:56.240Z,2.80
2023-06-11T01:56:23.225Z,3.20
2023-06-11T01:58:50.073Z,3.47
2023-06-11T02:01:16.893Z,2.90
2023-06-11T02:03:43.834Z,3.47
2023-06-11T02:06:10.726Z,3.20
2023-06-11T02:08:37.593Z,2.80
2023-06-11T02:11:05.018Z,3.60
2023-06-11T02:13:32.251Z,2.80
2023-06-11T02:16:00.014Z,3.17
2023-06-11T02:18:26.924Z,2.60
2023-06-11T02:20:53.796Z,2.63
2023-06-11T02:23:20.803Z,2.97
2023-06-11T02:25:47.573Z,2.90
2023-06-11T02:28:14.482Z,2.40
2023-06-11T02:30:41.350Z,2.67
2023-06-11T02:33:08.226Z,2.60
2023-06-11T02:35:35.107Z,2.30
2023-06-11T02:38:01.992Z,3.23
2023-06-11T02:40:28.819Z,2.97
2023-06-11T02:42:55.679Z,3.20
2023-06-11T02:45:22.691Z,3.03
2023-06-11T02:47:49.558Z,2.50
2023-06-11T02:50:16.474Z,2.63
2023-06-11T02:52:43.328Z,2.80
2023-06-11T02:55:10.920Z,2.60
2023-06-11T02:57:38.022Z,2.87
2023-06-11T03:00:06.890Z,1.90
2023-06-11T03:02:33.861Z,2.90
2023-06-11T03:05:00.928Z,2.60
2023-06-11T03:07:27.742Z,2.60
2023-06-11T03:09:54.544Z,2.47
2023-06-11T03:12:22.112Z,2.50
2023-06-11T03:14:48.974Z,2.43
2023-06-11T03:17:15.864Z,3.40
2023-06-11T03:19:42.853Z,2.90
2023-06-11T03:22:10.338Z,2.53
2023-06-11T03:24:37.132Z,2.60
2023-06-11T03:27:04.346Z,2.97
2023-06-11T03:29:31.122Z,3.17
2023-06-11T03:31:58.354Z,2.00
2023-06-11T03:34:25.264Z,4.07
2023-06-11T03:36:52.013Z,1.90
2023-06-11T03:39:18.946Z,2.43
2023-06-11T03:41:45.847Z,2.07
2023-06-11T03:44:12.889Z,2.60
2023-06-11T03:46:39.717Z,2.67
2023-06-11T03:49:06.555Z,2.40
2023-06-11T03:51:33.417Z,3.80
2023-06-11T03:54:00.312Z,2.60
2023-06-11T03:56:27.773Z,2.50
2023-06-11T03:58:54.557Z,2.40
2023-06-11T04:01:21.915Z,2.70
2023-06-11T04:03:48.861Z,2.60
2023-06-11T04:06:17.187Z,3.03
2023-06-11T04:08:44.002Z,2.60
2023-06-11T04:11:10.994Z,2.97
2023-06-11T04:13:37.799Z,2.10
2023-06-11T04:16:07.055Z,2.40
2023-06-11T04:18:34.167Z,2.80
2023-06-11T04:21:01.134Z,2.27
2023-06-11T04:23:27.916Z,2.50
2023-06-11T04:25:56.431Z,2.67
2023-06-11T04:28:24.424Z,2.60
2023-06-11T04:30:51.243Z,2.20
2023-06-11T04:33:18.070Z,2.50
2023-06-11T04:35:44.927Z,2.63
2023-06-11T04:38:12.048Z,2.30
2023-06-11T04:40:39.074Z,2.50
2023-06-11T04:43:05.938Z,2.03
2023-06-11T04:45:35.233Z,2.93
2023-06-11T04:48:04.754Z,2.67
2023-06-11T04:50:32.902Z,2.20
2023-06-11T04:53:02.970Z,2.00
2023-06-11T04:55:33.420Z,2.30
2023-06-11T04:58:00.345Z,2.43
2023-06-11T05:00:27.558Z,2.47
2023-06-11T05:02:54.855Z,1.77
2023-06-11T05:05:21.801Z,2.60
2023-06-11T05:07:48.608Z,2.80
2023-06-11T05:10:16.693Z,2.00
2023-06-11T05:12:43.521Z,2.80
2023-06-11T05:15:11.081Z,2.13
2023-06-11T05:17:38.266Z,3.03
2023-06-11T05:20:06.530Z,2.50
2023-06-11T05:22:33.324Z,2.50
2023-06-11T05:25:00.114Z,1.93
2023-06-11T05:27:30.264Z,2.50
2023-06-11T05:29:58.211Z,2.00
2023-06-11T05:32:25.170Z,2.33
2023-06-11T05:34:52.192Z,2.90
2023-06-11T05:37:19.379Z,2.43
2023-06-11T05:39:46.749Z,2.40
2023-06-11T05:42:13.624Z,2.33
2023-06-11T05:44:40.414Z,2.33
2023-06-11T05:47:07.499Z,2.00
2023-06-11T05:49:34.429Z,2.20
2023-06-11T05:52:01.223Z,1.90
2023-06-11T05:54:28.099Z,1.80
2023-06-11T05:56:54.909Z,2.00
2023-06-11T05:59:21.764Z,2.10
2023-06-11T06:01:48.626Z,2.50
2023-06-11T06:04:17.194Z,2.13
2023-06-11T06:06:44.148Z,2.30
2023-06-11T06:09:11.264Z,1.90
2023-06-11T06:11:38.207Z,1.90
2023-06-11T06:14:05.078Z,2.10
2023-06-11T06:16:32.998Z,2.10
2023-06-11T06:19:00.142Z,2.00
2023-06-11T06:21:26.937Z,1.90
2023-06-11T06:23:53.938Z,1.70
2023-06-11T06:26:21.632Z,2.07
2023-06-11T06:28:48.450Z,1.93
2023-06-11T06:31:15.599Z,2.20
2023-06-11T06:33:42.471Z,1.83
2023-06-11T06:36:09.348Z,1.77
2023-06-11T06:38:37.512Z,2.07
2023-06-11T06:41:04.558Z,1.50
2023-06-11T06:43:31.459Z,2.07
2023-06-11T06:45:58.433Z,1.87
2023-06-11T06:48:26.335Z,2.00
2023-06-11T06:50:53.323Z,1.93
2023-06-11T06:53:20.115Z,2.33
2023-06-11T06:55:47.696Z,1.70
2023-06-11T06:58:15.759Z,2.13
2023-06-11T07:00:42.595Z,1.63
2023-06-11T07:03:10.655Z,1.60
2023-06-11T07:05:37.583Z,1.57
2023-06-11T07:08:04.545Z,1.80
2023-06-11T07:10:31.523Z,2.10
2023-06-11T07:13:00.638Z,2.37
2023-06-11T07:15:27.756Z,2.27
2023-06-11T07:17:54.560Z,2.00
2023-06-11T07:20:21.686Z,2.10
2023-06-11T07:22:48.558Z,1.43
2023-06-11T07:25:15.468Z,2.20
2023-06-11T07:27:44.103Z,1.97
2023-06-11T07:30:12.643Z,1.97
2023-06-11T07:32:39.609Z,2.10
2023-06-11T07:35:06.799Z,1.60
2023-06-11T07:37:33.659Z,2.50
2023-06-11T07:40:00.523Z,2.20
2023-06-11T07:42:27.353Z,2.00
2023-06-11T07:44:54.165Z,1.90
2023-06-11T07:47:21.079Z,2.00
2023-06-11T07:49:47.937Z,1.83
2023-06-11T07:52:14.773Z,2.00
2023-06-11T07:54:42.462Z,2.00
2023-06-11T07:57:11.200Z,2.00
2023-06-11T07:59:38.272Z,1.70
2023-06-11T08:02:06.155Z,2.00
2023-06-11T08:04:33.417Z,2.30
2023-06-11T08:07:00.363Z,1.80
2023-06-11T08:09:29.978Z,1.83
2023-06-11T08:11:57.843Z,2.60
2023-06-11T08:14:24.693Z,1.70
2023-06-11T08:16:51.605Z,1.77
2023-06-11T08:19:18.613Z,2.30
2023-06-11T08:21:47.988Z,2.00
2023-06-11T08:24:14.923Z,1.73
2023-06-11T08:26:41.800Z,1.97
2023-06-11T08:29:08.661Z,2.20
2023-06-11T08:31:35.609Z,2.13
2023-06-11T08:34:02.667Z,2.07
2023-06-11T08:36:29.514Z,2.00
2023-06-11T08:38:56.532Z,2.03
2023-06-11T08:41:24.746Z,1.80
2023-06-11T08:43:51.715Z,1.90
2023-06-11T08:46:23.146Z,1.87
2023-06-11T08:49:00.487Z,1.80
2023-06-11T08:51:38.276Z,1.80
2023-06-11T08:54:09.230Z,1.90
2023-06-11T08:56:36.885Z,1.80
2023-06-11T08:59:04.552Z,1.97
2023-06-11T09:01:32.807Z,1.73
2023-06-11T09:04:00.926Z,1.77
2023-06-11T09:06:29.335Z,1.87
2023-06-11T09:09:00.741Z,1.93
2023-06-11T09:11:33.658Z,1.97
2023-06-11T09:14:00.678Z,1.40
2023-06-11T09:16:27.605Z,2.23
2023-06-11T09:18:57.486Z,2.23
2023-06-11T09:21:26.130Z,2.00
2023-06-11T09:23:53.389Z,1.80
2023-06-11T09:26:20.306Z,1.87
2023-06-11T09:28:51.810Z,2.03
2023-06-11T09:31:20.109Z,2.20
2023-06-11T09:33:47.093Z,2.67
2023-06-11T09:36:17.359Z,1.80
2023-06-11T09:38:47.960Z,1.90
2023-06-11T09:41:16.533Z,2.77
2023-06-11T09:43:45.302Z,1.90
2023-06-11T09:46:15.649Z,1.50
2023-06-11T09:48:42.983Z,1.63
2023-06-11T09:51:10.967Z,1.80
2023-06-11T09:53:39.562Z,2.03
2023-06-11T09:56:11.562Z,1.97
2023-06-11T09:58:40.791Z,2.10
2023-06-11T10:01:08.471Z,2.20
2023-06-11T10:03:35.341Z,1.87
2023-06-11T10:06:08.102Z,2.43
2023-06-11T10:08:37.276Z,2.00
2023-06-11T10:11:05.336Z,2.30
2023-06-11T10:13:36.431Z,2.40
2023-06-11T10:16:05.301Z,2.20
2023-06-11T10:18:32.287Z,1.90
2023-06-11T10:21:04.461Z,2.67
2023-06-11T10:23:50.601Z,1.97
2023-06-11T10:26:18.002Z,2.30
2023-06-11T10:28:53.574Z,1.90
2023-06-11T10:31:30.909Z,2.23
2023-06-11T10:34:05.172Z,2.53
2023-06-11T10:36:41.838Z,2.00
2023-06-11T10:39:35.099Z,1.80
2023-06-11T10:42:03.554Z,1.80
2023-06-11T10:44:31.359Z,2.20
2023-06-11T10:47:01.900Z,2.10
2023-06-11T10:49:29.789Z,2.13
2023-06-11T10:51:57.302Z,2.40
2023-06-11T10:54:28.370Z,1.97
2023-06-11T10:57:00.056Z,2.00
2023-06-11T10:59:27.253Z,1.90
2023-06-11T11:01:54.737Z,2.13
2023-06-11T11:04:25.145Z,2.63
2023-06-11T11:07:09.817Z,2.57
2023-06-11T11:09:37.051Z,2.60
2023-06-11T11:12:05.013Z,3.13
2023-06-11T11:14:32.061Z,2.57
2023-06-11T11:17:02.491Z,2.90
2023-06-11T11:19:31.507Z,2.23
2023-06-11T11:21:58.431Z,2.53
2023-06-11T11:24:26.039Z,2.03
2023-06-11T11:26:53.078Z,2.27
2023-06-11T11:29:19.991Z,2.50
2023-06-11T11:31:47.829Z,2.20
2023-06-11T11:34:14.910Z,2.70
2023-06-11T11:36:46.808Z,2.23
2023-06-11T11:39:15.699Z,2.97
2023-06-11T11:42:02.993Z,1.87
2023-06-11T11:44:42.839Z,2.57
2023-06-11T11:47:11.346Z,2.40
2023-06-11T11:49:38.662Z,2.70
2023-06-11T11:52:08.907Z,2.10
2023-06-11T11:54:36.234Z,2.33
2023-06-11T11:57:03.813Z,2.40
2023-06-11T11:59:31.105Z,2.13
2023-06-11T12:01:59.314Z,2.73
2023-06-11T12:04:43.773Z,1.90
2023-06-11T12:07:16.297Z,1.90
2023-06-11T12:09:43.368Z,2.40
2023-06-11T12:12:11.429Z,2.30
2023-06-11T12:14:39.027Z,3.03
2023-06-11T12:17:12.015Z,2.17
2023-06-11T12:19:39.075Z,2.30
2023-06-11T12:22:06.675Z,2.03
2023-06-11T12:24:37.768Z,2.57
2023-06-11T12:27:09.416Z,2.40
2023-06-11T12:29:38.175Z,2.40
2023-06-11T12:32:05.489Z,2.40
2023-06-11T12:34:33.518Z,3.00
2023-06-11T12:37:01.263Z,2.60
2023-06-11T12:39:28.097Z,2.50
2023-06-11T12:41:54.957Z,2.30
2023-06-11T12:44:21.802Z,2.63
2023-06-11T12:46:48.670Z,2.40
2023-06-11T12:49:15.608Z,2.10
2023-06-11T12:51:47.041Z,1.87
2023-06-11T12:54:15.984Z,1.83
2023-06-11T12:59:09.820Z,2.30
2023-06-11T13:01:36.924Z,2.43
2023-06-11T13:04:03.948Z,2.20
2023-06-11T13:06:31.253Z,2.37
2023-06-11T13:08:58.528Z,2.20
2023-06-11T13:11:25.343Z,2.30
2023-06-11T13:13:53.313Z,2.10
2023-06-11T13:16:20.335Z,2.33
2023-06-11T13:18:47.278Z,2.60
2023-06-11T13:21:14.867Z,2.40
2023-06-11T13:23:44.022Z,2.00
2023-06-11T13:26:11.583Z,2.60
2023-06-11T13:28:40.467Z,2.10
2023-06-11T13:31:07.825Z,3.03
2023-06-11T13:33:34.753Z,2.10
2023-06-11T13:36:02.017Z,2.00
2023-06-11T13:38:28.975Z,2.13
2023-06-11T13:40:56.162Z,2.30
2023-06-11T13:43:23.212Z,2.30
2023-06-11T13:45:51.028Z,2.80
2023-06-11T13:48:19.928Z,2.30
2023-06-11T13:50:48.400Z,1.83
2023-06-11T13:53:16.268Z,2.53
2023-06-11T13:55:43.337Z,2.43
2023-06-11T13:58:10.125Z,2.30
2023-06-11T14:00:36.968Z,2.17
2023-06-11T14:03:05.088Z,2.60
2023-06-11T14:05:32.357Z,2.17
2023-06-11T14:07:59.804Z,2.13
2023-06-11T14:10:27.421Z,2.53
2023-06-11T14:12:54.299Z,2.30
2023-06-11T14:15:21.280Z,2.30
2023-06-11T14:17:48.414Z,2.20
2023-06-11T14:20:17.921Z,2.20
2023-06-11T14:22:45.616Z,2.30
2023-06-11T14:25:12.627Z,2.47
2023-06-11T14:27:39.473Z,2.30
2023-06-11T14:30:07.435Z,2.23
2023-06-11T14:32:34.373Z,1.83
2023-06-11T14:35:01.385Z,1.90
2023-06-11T14:37:28.700Z,2.33
2023-06-11T14:39:55.853Z,2.47
2023-06-11T14:42:23.105Z,1.90
2023-06-11T14:44:50.612Z,2.13
2023-06-11T14:47:17.845Z,2.10
2023-06-11T14:49:44.683Z,1.90
2023-06-11T14:52:13.943Z,2.27
2023-06-11T14:54:40.714Z,1.90
2023-06-11T14:57:19.403Z,2.17
2023-06-11T14:59:46.611Z,2.10
2023-06-11T15:02:17.100Z,1.90
2023-06-11T15:04:44.973Z,2.67
2023-06-11T15:07:29.400Z,2.90
2023-06-11T15:10:05.836Z,1.97
2023-06-11T15:12:32.902Z,1.97
2023-06-11T15:15:02.420Z,2.50
2023-06-11T15:17:36.826Z,2.43
2023-06-11T15:20:08.551Z,2.00
2023-06-11T15:22:38.566Z,2.10
2023-06-11T15:25:05.781Z,2.40
2023-06-11T15:27:32.633Z,2.03
2023-06-11T15:29:59.655Z,1.60
2023-06-11T15:32:26.561Z,2.60
2023-06-11T15:34:53.464Z,2.20
2023-06-11T15:37:20.390Z,1.50
2023-06-11T15:39:51.669Z,2.43
2023-06-11T15:42:19.461Z,2.13
2023-06-11T15:44:46.647Z,1.97
2023-06-11T15:47:13.640Z,2.00
2023-06-11T15:49:40.634Z,1.80
2023-06-11T15:52:08.773Z,2.13
2023-06-11T15:54:35.697Z,2.70
2023-06-11T15:57:02.850Z,2.40
2023-06-11T15:59:29.799Z,2.40
2023-06-11T16:01:56.783Z,2.60
2023-06-11T16:04:24.402Z,2.20
2023-06-11T16:06:51.469Z,2.00
2023-06-11T16:09:18.371Z,2.50
2023-06-11T16:11:45.481Z,2.20
2023-06-11T16:14:15.970Z,2.13
2023-06-11T16:16:43.637Z,2.53
2023-06-11T16:19:10.581Z,2.70
2023-06-11T16:21:38.161Z,1.80
2023-06-11T16:24:06.126Z,2.10
2023-06-11T16:26:33.322Z,1.70
2023-06-11T16:29:00.518Z,1.73
2023-06-11T16:31:27.454Z,2.10
2023-06-11T16:33:58.931Z,2.23
2023-06-11T16:36:29.086Z,1.80
2023-06-11T16:39:01.293Z,1.97
2023-06-11T16:41:33.330Z,1.97
2023-06-11T16:44:00.527Z,1.80
2023-06-11T16:46:27.551Z,2.13
2023-06-11T16:48:54.692Z,2.10
2023-06-11T16:51:21.671Z,1.60
2023-06-11T16:53:48.683Z,2.57
2023-06-11T16:56:15.668Z,1.90
2023-06-11T16:58:42.498Z,1.77
2023-06-11T17:01:09.466Z,1.90
2023-06-11T17:03:36.580Z,1.67
2023-06-11T17:06:03.758Z,1.93
2023-06-11T17:08:31.149Z,1.70
2023-06-11T17:10:58.210Z,2.17
2023-06-11T17:13:25.457Z,2.20
2023-06-11T17:15:52.297Z,1.80
2023-06-11T17:18:19.136Z,2.10
2023-06-11T17:20:47.437Z,2.10
2023-06-11T17:23:16.868Z,1.90
2023-06-11T17:25:43.997Z,1.80
2023-06-11T17:28:14.285Z,1.80
2023-06-11T17:30:41.096Z,1.83
2023-06-11T17:33:07.956Z,2.00
2023-06-11T17:35:34.848Z,1.73
2023-06-11T17:38:01.802Z,2.10
2023-06-11T17:40:29.025Z,2.30
2023-06-11T17:42:59.089Z,2.20
2023-06-11T17:45:29.736Z,1.97
2023-06-11T17:47:57.300Z,2.60
2023-06-11T17:50:25.044Z,2.10
2023-06-11T17:52:52.280Z,2.63
2023-06-11T17:55:19.124Z,2.00
2023-06-11T17:57:48.107Z,1.90
2023-06-11T18:00:16.941Z,2.90
2023-06-11T18:02:45.451Z,1.80
2023-06-11T18:05:13.162Z,2.33
2023-06-11T18:07:46.561Z,2.27
2023-06-11T18:10:15.787Z,2.10
2023-06-11T18:12:43.632Z,2.43
2023-06-11T18:15:30.499Z,2.47
2023-06-11T18:17:59.327Z,3.07
2023-06-11T18:20:27.947Z,2.00
2023-06-11T18:22:55.149Z,2.10
2023-06-11T18:25:22.450Z,2.53
2023-06-11T18:27:49.560Z,2.33
2023-06-11T18:30:16.484Z,2.27
2023-06-11T18:32:43.446Z,2.17
2023-06-11T18:35:11.249Z,2.43
2023-06-11T18:37:38.739Z,2.27
2023-06-11T18:40:06.734Z,2.10
2023-06-11T18:42:33.637Z,2.33
2023-06-11T18:45:00.800Z,3.47
2023-06-11T18:47:27.672Z,3.00
2023-06-11T18:49:54.505Z,1.87
2023-06-11T18:52:21.449Z,2.73
2023-06-11T18:54:48.391Z,2.10
2023-06-11T18:57:19.553Z,2.30
2023-06-11T18:59:50.428Z,2.10
2023-06-11T19:02:17.529Z,2.67
2023-06-11T19:04:44.605Z,2.10
2023-06-11T19:07:11.681Z,2.53
2023-06-11T19:09:39.149Z,2.60
2023-06-11T19:12:07.468Z,2.43
2023-06-11T19:14:34.592Z,2.70
2023-06-11T19:17:01.518Z,2.50
2023-06-11T19:19:28.531Z,2.57
2023-06-11T19:21:55.947Z,2.57
2023-06-11T19:24:22.853Z,2.23
2023-06-11T19:26:50.075Z,3.00
2023-06-11T19:29:16.976Z,2.00
2023-06-11T19:31:43.860Z,2.43
2023-06-11T19:34:10.749Z,2.27
2023-06-11T19:36:38.485Z,2.80
2023-06-11T19:39:06.079Z,2.50
2023-06-11T19:41:32.911Z,2.40
2023-06-11T19:43:59.971Z,2.27
2023-06-11T19:46:35.705Z,2.57
2023-06-11T19:49:03.494Z,2.50
2023-06-11T19:51:30.493Z,2.63
2023-06-11T19:54:03.071Z,3.30
2023-06-11T19:56:35.598Z,2.60
2023-06-11T19:59:05.194Z,2.30
2023-06-11T20:01:32.638Z,3.10
2023-06-11T20:04:08.467Z,3.10
2023-06-11T20:06:35.898Z,2.80
2023-06-11T20:09:05.108Z,3.17
2023-06-11T20:11:32.305Z,3.20
2023-06-11T20:13:59.353Z,2.70
2023-06-11T20:16:26.321Z,3.30
2023-06-11T20:18:53.756Z,2.87
2023-06-11T20:21:20.634Z,3.10
2023-06-11T20:23:47.456Z,2.70
2023-06-11T20:26:14.298Z,3.47
2023-06-11T20:28:41.130Z,2.90
2023-06-11T20:31:09.034Z,1.93
2023-06-11T20:33:36.341Z,3.37
2023-06-11T20:36:03.927Z,3.00
2023-06-11T20:38:30.960Z,2.93
2023-06-11T20:40:58.591Z,3.33
2023-06-11T20:43:25.478Z,3.40
2023-06-11T20:48:22.469Z,2.77
2023-06-11T20:50:49.782Z,2.50
2023-06-11T20:53:31.779Z,2.83
2023-06-11T20:56:00.846Z,2.87
2023-06-11T20:58:27.762Z,2.57
2023-06-11T21:00:54.738Z,2.83
2023-06-11T21:03:22.005Z,3.23
2023-06-11T21:05:51.299Z,2.70
2023-06-11T21:08:21.506Z,2.73
2023-06-11T21:10:48.600Z,2.30
2023-06-11T21:13:15.714Z,2.73
2023-06-11T21:15:42.919Z,3.10
2023-06-11T21:18:09.903Z,3.00
2023-06-11T21:20:39.174Z,2.70
2023-06-11T21:23:06.136Z,3.27
2023-06-11T21:25:33.106Z,2.67
2023-06-11T21:28:03.467Z,2.53
2023-06-11T21:30:33.639Z,3.60
2023-06-11T21:33:01.951Z,3.30
2023-06-11T21:35:28.892Z,3.20
2023-06-11T21:37:55.766Z,3.00
2023-06-11T21:40:22.743Z,2.03
2023-06-11T21:42:49.606Z,2.73
2023-06-11T21:45:16.661Z,3.73
2023-06-11T21:47:43.547Z,2.70
2023-06-11T22:10:11.582Z,2.93
2023-06-11T22:12:42.310Z,2.40
2023-06-11T22:15:11.949Z,3.37
2023-06-11T22:17:40.565Z,2.50
2023-06-11T22:20:09.507Z,2.97
2023-06-11T22:22:38.334Z,3.30
2023-06-11T22:25:06.172Z,2.40
2023-06-11T22:27:33.570Z,2.90
2023-06-11T22:30:00.475Z,3.10
2023-06-11T22:32:27.742Z,2.57
2023-06-11T22:34:54.677Z,2.90
2023-06-11T22:37:21.583Z,3.70
2023-06-11T22:39:48.672Z,3.13
2023-06-11T22:42:15.536Z,2.80
2023-06-11T22:44:42.356Z,3.13
2023-06-11T22:47:09.535Z,3.13
2023-06-11T22:49:36.439Z,3.33
2023-06-11T22:52:03.445Z,3.60
2023-06-11T22:54:30.353Z,3.10
2023-06-11T22:56:57.331Z,3.87
2023-06-11T22:59:24.154Z,3.30
2023-06-11T23:01:51.410Z,3.30
2023-06-11T23:04:20.876Z,3.57
2023-06-11T23:06:48.646Z,3.40
2023-06-11T23:09:16.309Z,3.80
2023-06-11T23:11:43.620Z,3.23
2023-06-11T23:14:11.554Z,3.37
2023-06-11T23:16:38.618Z,3.77
2023-06-11T23:19:06.057Z,3.50
2023-06-11T23:21:32.873Z,3.73
2023-06-11T23:24:02.058Z,3.83
2023-06-11T23:26:29.272Z,4.27
2023-06-11T23:28:57.189Z,3.60
2023-06-11T23:31:24.243Z,3.90
2023-06-11T23:33:51.134Z,3.97
2023-06-11T23:36:19.177Z,3.93
2023-06-11T23:38:46.898Z,4.17
2023-06-11T23:41:13.741Z,4.03
2023-06-11T23:43:40.934Z,3.37
2023-06-11T23:46:12.396Z,4.00
2023-06-11T23:48:39.949Z,4.70
2023-06-11T23:51:10.428Z,4.20
2023-06-11T23:53:37.378Z,3.67
2023-06-11T23:56:04.552Z,4.43
2023-06-11T23:58:31.432Z,4.13
